Terminal Aerodrome Forecast
Issued by NWS

Home | Current Version | Previous Version | Text Only | Print | Product List | Glossary On
Versions: 1 2 3 4 5 6 7 8 9 10 11 12 13
929
FTUS41 KLWX 071734
TAFMTN
TAF
KMTN 071734Z 0718/0818 03005KT P6SM BKN200
     FM081400 02006KT P6SM SCT020 BKN050=

USA.gov is the U.S. government's official web portal to all federal, state and local government web resources and services.